F/V Le Natif 2 — FKVW — position and weather

sailwx.info

Track history (hours):
 
Tides and Currents Weather Stations Pressure Air Temp Water Temp Dewpoint Dewpoint Depression Visibility Wind Speed Wind Dir Waves Ship Positions

F/V Le Natif 2

Last reported at 2017-Apr-27 03:27 UTC. Time now 2017-Apr-27 07:22 UTC.
Position N 46°11' W 002°00'.

Length 16 m.

Type: Fishing. MMSI: 228131600.

Date/timePositionNaut miles runAvg speedWind from/ knotsBaromVisibWave heightAir tempDewpointWater temp
2017-Apr-27 03:27N 46°11' W 002°00'0 0.1
2017-Apr-26 21:27N 46°11' W 002°01'4 0.9
2017-Apr-26 17:01N 46°15' W 001°58'0 3.4
2017-Apr-26 17:00N 46°15' W 001°58'2 3.2
2017-Apr-26 16:29N 46°16' W 001°57'1 3.0
2017-Apr-26 16:00N 46°17' W 001°55'1 2.5
2017-Apr-26 15:30N 46°16' W 001°54'1 2.6
2017-Apr-26 15:00N 46°15' W 001°53'1 2.6
2017-Apr-26 14:30N 46°14' W 001°52'3 2.6
2017-Apr-26 13:30N 46°12' W 001°50'1 2.7
2017-Apr-26 13:00N 46°10' W 001°49'8 1.2
2017-Apr-26 06:31N 46°12' W 002°00'0 3.9
2017-Apr-26 06:29N 46°12' W 001°60'2 2.5
2017-Apr-26 05:49N 46°10' W 001°59'3 0.4
2017-Apr-25 22:04N 46°08' W 001°58'3 0.7
2017-Apr-25 17:29N 46°08' W 001°53'1 2.6
2017-Apr-25 17:00N 46°07' W 001°52'7 1.1
2017-Apr-25 10:59N 46°12' W 001°58'1 3.0
2017-Apr-25 10:29N 46°11' W 001°57'8 1.4
2017-Apr-25 04:57N 46°18' W 002°02'4 8.7
2017-Apr-25 04:30N 46°22' W 002°01'4 8.6
2017-Apr-25 04:00N 46°26' W 002°01'4 8.6
2017-Apr-25 03:30N 46°30' W 002°01'4 8.5
2017-Apr-25 03:00N 46°34' W 001°59'4 8.5
2017-Apr-25 02:30N 46°39' W 001°58'3 5.9
2017-Apr-25 01:58N 46°42' W 001°56'0 0.0
2017-Apr-25 01:26N 46°42' W 001°56'2 3.7
2017-Apr-25 01:00N 46°40' W 001°57'4 8.6
2017-Apr-25 00:30N 46°36' W 001°56'4 8.4
2017-Apr-25 00:00N 46°32' W 001°55'4 8.2
2017-Apr-24 23:30N 46°28' W 001°54'4 8.2
2017-Apr-24 23:00N 46°24' W 001°53'4 8.3
2017-Apr-24 22:30N 46°20' W 001°51'4 8.2
2017-Apr-24 22:00N 46°16' W 001°50'4 8.2
2017-Apr-24 21:30N 46°12' W 001°49'4 8.2
2017-Apr-24 21:00N 46°08' W 001°48'4 8.2
2017-Apr-24 20:30N 46°04' W 001°47'4 8.2
2017-Apr-24 20:00N 45°60' W 001°46'4 8.4
2017-Apr-24 19:30N 45°56' W 001°44'4 8.2
2017-Apr-24 18:59N 45°51' W 001°43'3 0.1
2017-Apr-23 01:40N 45°52' W 001°40'14 0.8
2017-Apr-22 07:41N 46°06' W 001°45'1 8.4
2017-Apr-22 07:30N 46°08' W 001°46'4 8.5
2017-Apr-22 07:00N 46°12' W 001°48'4 8.6
2017-Apr-22 06:30N 46°16' W 001°50'4 8.6
2017-Apr-22 06:00N 46°20' W 001°51'4 8.1
2017-Apr-22 05:30N 46°24' W 001°52'4 8.0
2017-Apr-22 05:00N 46°28' W 001°54'4 8.1
2017-Apr-22 04:30N 46°32' W 001°55'4 8.1
2017-Apr-22 04:00N 46°36' W 001°56'4 8.0
2017-Apr-22 03:30N 46°39' W 001°57'2 4.6
2017-Apr-22 03:00N 46°42' W 001°57'0 0.0
2017-Apr-21 01:40N 46°42' W 001°57'0 0.5
2017-Apr-21 01:30N 46°42' W 001°56'0 0.0
2017-Apr-21 01:00N 46°42' W 001°56'0 0.2
2017-Apr-21 00:30N 46°42' W 001°57'2 4.9
2017-Apr-21 00:00N 46°39' W 001°57'4 8.8
2017-Apr-20 23:30N 46°35' W 001°56'4 8.7
2017-Apr-20 23:00N 46°31' W 001°54'4 8.6
2017-Apr-20 22:30N 46°27' W 001°53'4 8.6
2017-Apr-20 22:00N 46°22' W 001°52'4 8.6
2017-Apr-20 21:30N 46°18' W 001°51'4 8.4
2017-Apr-20 21:00N 46°14' W 001°50'4 8.4
2017-Apr-20 20:30N 46°10' W 001°48'  
2017-Apr-17 15:10N 45°49' W 001°32'1 3.3
2017-Apr-17 14:56N 45°48' W 001°31'26 3.6
2017-Apr-17 07:40N 46°12' W 001°46'2 9.0
2017-Apr-17 07:30N 46°14' W 001°46'4 9.0
2017-Apr-17 07:00N 46°18' W 001°48'4 8.9
2017-Apr-17 06:30N 46°23' W 001°49'4 9.0
2017-Apr-17 06:00N 46°27' W 001°52'4 9.0
2017-Apr-17 05:30N 46°31' W 001°54'4 9.0
2017-Apr-17 05:00N 46°35' W 001°56'4 8.9
2017-Apr-17 04:30N 46°40' W 001°57'2 4.2
2017-Apr-17 04:00N 46°42' W 001°57'  
Track history (hours):
 
Tides and Currents Weather Stations Pressure Air Temp Water Temp Dewpoint Dewpoint Depression Visibility Wind Speed Wind Dir Waves Ship Positions

F/V Le Natif 2

Last reported at 2017-Apr-27 03:27 UTC. Time now 2017-Apr-27 07:22 UTC.
Position N 46°11' W 002°00'.

Length 16 m.

Type: Fishing. MMSI: 228131600.

Date/timePositionNaut miles runAvg speedWind from/ knotsBaromVisibWave heightAir tempDewpointWater temp
2017-Apr-27 03:27N 46°11' W 002°00'0 0.1
2017-Apr-26 21:27N 46°11' W 002°01'4 0.9
2017-Apr-26 17:01N 46°15' W 001°58'0 3.4
2017-Apr-26 17:00N 46°15' W 001°58'2 3.2
2017-Apr-26 16:29N 46°16' W 001°57'1 3.0
2017-Apr-26 16:00N 46°17' W 001°55'1 2.5
2017-Apr-26 15:30N 46°16' W 001°54'1 2.6
2017-Apr-26 15:00N 46°15' W 001°53'1 2.6
2017-Apr-26 14:30N 46°14' W 001°52'3 2.6
2017-Apr-26 13:30N 46°12' W 001°50'1 2.7
2017-Apr-26 13:00N 46°10' W 001°49'8 1.2
2017-Apr-26 06:31N 46°12' W 002°00'0 3.9
2017-Apr-26 06:29N 46°12' W 001°60'2 2.5
2017-Apr-26 05:49N 46°10' W 001°59'3 0.4
2017-Apr-25 22:04N 46°08' W 001°58'3 0.7
2017-Apr-25 17:29N 46°08' W 001°53'1 2.6
2017-Apr-25 17:00N 46°07' W 001°52'7 1.1
2017-Apr-25 10:59N 46°12' W 001°58'1 3.0
2017-Apr-25 10:29N 46°11' W 001°57'8 1.4
2017-Apr-25 04:57N 46°18' W 002°02'4 8.7
2017-Apr-25 04:30N 46°22' W 002°01'4 8.6
2017-Apr-25 04:00N 46°26' W 002°01'4 8.6
2017-Apr-25 03:30N 46°30' W 002°01'4 8.5
2017-Apr-25 03:00N 46°34' W 001°59'4 8.5
2017-Apr-25 02:30N 46°39' W 001°58'3 5.9
2017-Apr-25 01:58N 46°42' W 001°56'0 0.0
2017-Apr-25 01:26N 46°42' W 001°56'2 3.7
2017-Apr-25 01:00N 46°40' W 001°57'4 8.6
2017-Apr-25 00:30N 46°36' W 001°56'4 8.4
2017-Apr-25 00:00N 46°32' W 001°55'4 8.2
2017-Apr-24 23:30N 46°28' W 001°54'4 8.2
2017-Apr-24 23:00N 46°24' W 001°53'4 8.3
2017-Apr-24 22:30N 46°20' W 001°51'4 8.2
2017-Apr-24 22:00N 46°16' W 001°50'4 8.2
2017-Apr-24 21:30N 46°12' W 001°49'4 8.2
2017-Apr-24 21:00N 46°08' W 001°48'4 8.2
2017-Apr-24 20:30N 46°04' W 001°47'4 8.2
2017-Apr-24 20:00N 45°60' W 001°46'4 8.4
2017-Apr-24 19:30N 45°56' W 001°44'4 8.2
2017-Apr-24 18:59N 45°51' W 001°43'3 0.1
2017-Apr-23 01:40N 45°52' W 001°40'14 0.8
2017-Apr-22 07:41N 46°06' W 001°45'1 8.4
2017-Apr-22 07:30N 46°08' W 001°46'4 8.5
2017-Apr-22 07:00N 46°12' W 001°48'4 8.6
2017-Apr-22 06:30N 46°16' W 001°50'4 8.6
2017-Apr-22 06:00N 46°20' W 001°51'4 8.1
2017-Apr-22 05:30N 46°24' W 001°52'4 8.0
2017-Apr-22 05:00N 46°28' W 001°54'4 8.1
2017-Apr-22 04:30N 46°32' W 001°55'4 8.1
2017-Apr-22 04:00N 46°36' W 001°56'4 8.0
2017-Apr-22 03:30N 46°39' W 001°57'2 4.6
2017-Apr-22 03:00N 46°42' W 001°57'0 0.0
2017-Apr-21 01:40N 46°42' W 001°57'0 0.5
2017-Apr-21 01:30N 46°42' W 001°56'0 0.0
2017-Apr-21 01:00N 46°42' W 001°56'0 0.2
2017-Apr-21 00:30N 46°42' W 001°57'2 4.9
2017-Apr-21 00:00N 46°39' W 001°57'4 8.8
2017-Apr-20 23:30N 46°35' W 001°56'4 8.7
2017-Apr-20 23:00N 46°31' W 001°54'4 8.6
2017-Apr-20 22:30N 46°27' W 001°53'4 8.6
2017-Apr-20 22:00N 46°22' W 001°52'4 8.6
2017-Apr-20 21:30N 46°18' W 001°51'4 8.4
2017-Apr-20 21:00N 46°14' W 001°50'4 8.4
2017-Apr-20 20:30N 46°10' W 001°48'  
2017-Apr-17 15:10N 45°49' W 001°32'1 3.3
2017-Apr-17 14:56N 45°48' W 001°31'26 3.6
2017-Apr-17 07:40N 46°12' W 001°46'2 9.0
2017-Apr-17 07:30N 46°14' W 001°46'4 9.0
2017-Apr-17 07:00N 46°18' W 001°48'4 8.9
2017-Apr-17 06:30N 46°23' W 001°49'4 9.0
2017-Apr-17 06:00N 46°27' W 001°52'4 9.0
2017-Apr-17 05:30N 46°31' W 001°54'4 9.0
2017-Apr-17 05:00N 46°35' W 001°56'4 8.9
2017-Apr-17 04:30N 46°40' W 001°57'2 4.2
2017-Apr-17 04:00N 46°42' W 001°57'  

Dump ship's entire track history